createdAt,value
2022-11-26T00:02:28.409Z,26.57
2022-11-26T00:04:57.588Z,27.00
2022-11-26T00:07:28.504Z,26.17
2022-11-26T00:09:58.160Z,27.30
2022-11-26T00:12:29.261Z,26.73
2022-11-26T00:14:56.674Z,26.57
2022-11-26T00:17:23.728Z,26.00
2022-11-26T00:19:50.411Z,28.10
2022-11-26T00:22:30.846Z,27.33
2022-11-26T00:24:58.151Z,26.70
2022-11-26T00:27:27.576Z,26.13
2022-11-26T00:29:55.107Z,25.20
2022-11-26T00:32:25.229Z,25.10
2022-11-26T00:34:53.518Z,25.33
2022-11-26T00:37:25.944Z,25.67
2022-11-26T00:39:52.762Z,26.43
2022-11-26T00:42:19.521Z,26.03
2022-11-26T00:44:46.537Z,26.70
2022-11-26T00:47:13.166Z,27.90
2022-11-26T00:49:39.946Z,26.57
2022-11-26T00:52:51.527Z,27.47
2022-11-26T00:55:37.730Z,26.70
2022-11-26T00:58:07.076Z,28.13
2022-11-26T01:00:35.330Z,26.93
2022-11-26T01:03:02.834Z,27.30
2022-11-26T01:05:33.341Z,28.77
2022-11-26T01:08:06.413Z,28.20
2022-11-26T01:10:33.174Z,26.87
2022-11-26T01:12:59.818Z,27.33
2022-11-26T01:15:28.171Z,29.27
2022-11-26T01:17:55.370Z,29.83
2022-11-26T01:20:30.175Z,30.30
2022-11-26T01:22:58.745Z,28.20
2022-11-26T01:25:27.304Z,27.30
2022-11-26T01:27:54.352Z,29.23
2022-11-26T01:30:31.531Z,28.47
2022-11-26T01:32:59.585Z,31.50
2022-11-26T01:35:27.034Z,28.23
2022-11-26T01:37:54.314Z,31.33
2022-11-26T01:40:41.066Z,30.87
2022-11-26T01:43:30.027Z,29.83
2022-11-26T01:45:57.169Z,29.47
2022-11-26T01:48:31.556Z,30.77
2022-11-26T01:51:10.757Z,31.27
2022-11-26T01:53:46.610Z,30.23
2022-11-26T01:56:38.935Z,29.60
2022-11-26T01:59:34.464Z,32.40
2022-11-26T02:02:01.826Z,32.87
2022-11-26T02:04:35.827Z,30.80
2022-11-26T02:07:04.350Z,32.23
2022-11-26T02:09:31.841Z,32.23
2022-11-26T02:11:58.644Z,31.97
2022-11-26T02:14:25.174Z,32.17
2022-11-26T02:17:26.604Z,34.03
2022-11-26T02:20:11.217Z,33.20
2022-11-26T02:22:50.014Z,32.90
2022-11-26T02:25:43.696Z,32.13
2022-11-26T02:28:59.419Z,33.40
2022-11-26T02:31:58.056Z,33.03
2022-11-26T02:34:40.987Z,33.47
2022-11-26T02:37:25.219Z,33.10
2022-11-26T02:39:52.160Z,30.20
2022-11-26T02:42:25.867Z,30.80
2022-11-26T02:44:54.248Z,32.70
2022-11-26T02:47:23.621Z,33.17
2022-11-26T02:49:53.155Z,31.83
2022-11-26T02:52:21.840Z,33.77
2022-11-26T02:54:50.689Z,33.37
2022-11-26T02:57:20.459Z,33.43
2022-11-26T02:59:47.662Z,32.73
2022-11-26T03:02:31.984Z,34.80
2022-11-26T03:05:01.775Z,35.70
2022-11-26T03:07:31.746Z,34.50
2022-11-26T03:10:01.484Z,33.17
2022-11-26T03:12:28.528Z,31.47
2022-11-26T03:14:55.379Z,34.10
2022-11-26T03:17:22.429Z,33.63
2022-11-26T03:19:49.135Z,35.37
2022-11-26T03:22:16.039Z,33.73
2022-11-26T03:24:43.323Z,34.90
2022-11-26T03:27:10.163Z,33.10
2022-11-26T03:29:36.974Z,30.40
2022-11-26T03:32:04.072Z,31.27
2022-11-26T03:34:30.880Z,31.57
2022-11-26T03:36:57.596Z,32.70
2022-11-26T03:39:24.527Z,33.37
2022-11-26T03:41:51.194Z,33.77
2022-11-26T03:44:17.872Z,32.73
2022-11-26T03:46:44.621Z,32.80
2022-11-26T03:49:11.293Z,33.47
2022-11-26T03:51:37.974Z,29.97
2022-11-26T03:54:04.788Z,29.60
2022-11-26T03:56:31.573Z,31.13
2022-11-26T03:58:58.602Z,30.90
2022-11-26T04:01:25.729Z,30.00
2022-11-26T04:03:52.560Z,28.57
2022-11-26T04:06:19.290Z,24.47
2022-11-26T04:08:45.975Z,28.07
2022-11-26T04:11:12.764Z,27.27
2022-11-26T04:13:39.456Z,29.37
2022-11-26T04:16:07.140Z,26.97
2022-11-26T04:18:33.885Z,27.73
2022-11-26T04:21:00.720Z,26.50
2022-11-26T04:23:27.578Z,26.73
2022-11-26T04:25:54.675Z,26.90
2022-11-26T04:28:21.376Z,26.70
2022-11-26T04:30:48.150Z,26.43
2022-11-26T04:33:14.936Z,28.53
2022-11-26T04:35:41.947Z,26.93
2022-11-26T04:38:08.727Z,27.57
2022-11-26T04:40:35.774Z,27.20
2022-11-26T04:43:02.523Z,26.10
2022-11-26T04:45:29.406Z,25.73
2022-11-26T04:47:56.154Z,24.60
2022-11-26T04:50:22.972Z,20.37
2022-11-26T04:52:49.810Z,22.00
2022-11-26T04:55:17.986Z,20.70
2022-11-26T04:57:48.599Z,19.23
2022-11-26T05:00:17.705Z,20.43
2022-11-26T05:02:45.083Z,19.77
2022-11-26T05:05:12.965Z,21.60
2022-11-26T05:07:40.167Z,19.60
2022-11-26T05:10:08.813Z,18.97
2022-11-26T05:12:36.240Z,18.80
2022-11-26T05:15:04.194Z,19.53
2022-11-26T05:17:31.714Z,19.53
2022-11-26T05:19:58.523Z,18.27
2022-11-26T05:22:25.257Z,15.90
2022-11-26T05:24:52.011Z,16.23
2022-11-26T05:27:18.745Z,16.90
2022-11-26T05:29:45.459Z,14.50
2022-11-26T05:32:12.064Z,16.43
2022-11-26T05:34:40.275Z,14.63
2022-11-26T05:37:07.097Z,15.77
2022-11-26T05:39:33.806Z,15.10
2022-11-26T05:42:04.808Z,15.93
2022-11-26T05:44:34.455Z,14.77
2022-11-26T05:47:01.048Z,13.90
2022-11-26T05:49:27.704Z,14.07
2022-11-26T05:51:54.407Z,13.70
2022-11-26T05:54:21.106Z,13.00
2022-11-26T05:56:47.755Z,15.33
2022-11-26T05:59:14.791Z,13.33
2022-11-26T06:01:41.455Z,14.87
2022-11-26T06:04:08.217Z,13.00
2022-11-26T06:06:35.070Z,12.97
2022-11-26T06:09:01.795Z,14.57
2022-11-26T06:11:28.544Z,14.63
2022-11-26T06:13:55.247Z,13.83
2022-11-26T06:16:22.016Z,15.73
2022-11-26T06:18:48.838Z,15.03
2022-11-26T06:21:15.516Z,15.77
2022-11-26T06:23:49.648Z,14.60
2022-11-26T06:26:19.875Z,14.13
2022-11-26T06:28:46.509Z,12.93
2022-11-26T06:31:13.214Z,13.97
2022-11-26T06:33:39.985Z,13.50
2022-11-26T06:36:06.764Z,14.50
2022-11-26T06:38:33.568Z,13.07
2022-11-26T06:41:06.719Z,13.30
2022-11-26T06:43:34.307Z,14.20
2022-11-26T06:46:05.849Z,12.57
2022-11-26T06:48:33.949Z,14.03
2022-11-26T06:51:12.968Z,11.73
2022-11-26T06:53:40.026Z,11.87
2022-11-26T06:56:17.798Z,12.57
2022-11-26T06:58:47.156Z,12.00
2022-11-26T07:01:22.352Z,13.10
2022-11-26T07:03:49.417Z,13.40
2022-11-26T07:06:24.366Z,12.57
2022-11-26T07:08:53.102Z,12.27
2022-11-26T07:11:20.436Z,12.33
2022-11-26T07:13:47.141Z,12.80
2022-11-26T07:16:14.795Z,12.07
2022-11-26T07:18:41.883Z,12.00
2022-11-26T07:21:12.371Z,12.07
2022-11-26T07:23:40.865Z,12.80
2022-11-26T07:26:09.772Z,10.97
2022-11-26T07:28:37.454Z,12.67
2022-11-26T07:31:16.523Z,12.60
2022-11-26T07:33:45.530Z,12.07
2022-11-26T07:36:20.220Z,10.77
2022-11-26T07:38:47.385Z,9.17
2022-11-26T07:41:18.040Z,12.13
2022-11-26T07:43:46.529Z,11.47
2022-11-26T07:46:17.808Z,11.97
2022-11-26T07:48:44.947Z,10.10
2022-11-26T07:51:27.885Z,11.70
2022-11-26T07:53:58.827Z,11.27
2022-11-26T07:56:26.257Z,10.73
2022-11-26T07:58:52.947Z,12.20
2022-11-26T08:01:23.416Z,13.57
2022-11-26T08:03:51.504Z,11.43
2022-11-26T08:06:21.888Z,12.33
2022-11-26T08:08:49.442Z,11.83
2022-11-26T08:11:28.503Z,12.23
2022-11-26T08:14:11.380Z,12.97
2022-11-26T08:16:39.157Z,9.13
2022-11-26T08:19:14.999Z,10.73
2022-11-26T08:21:42.152Z,11.53
2022-11-26T08:24:14.446Z,8.87
2022-11-26T08:26:44.495Z,10.57
2022-11-26T08:29:12.385Z,8.80
2022-11-26T08:31:45.257Z,8.13
2022-11-26T08:34:15.097Z,9.47
2022-11-26T08:36:42.225Z,9.10
2022-11-26T08:39:17.428Z,9.67
2022-11-26T08:41:50.600Z,7.73
2022-11-26T08:44:19.177Z,8.23
2022-11-26T08:46:45.854Z,10.10
2022-11-26T08:49:14.946Z,9.50
2022-11-26T08:51:41.828Z,9.97
2022-11-26T08:54:08.620Z,9.80
2022-11-26T08:56:36.036Z,8.73
2022-11-26T08:59:03.877Z,8.87
2022-11-26T09:01:33.327Z,9.40
2022-11-26T09:04:05.380Z,9.17
2022-11-26T09:06:34.386Z,9.20
2022-11-26T09:09:14.535Z,9.40
2022-11-26T09:11:56.005Z,9.07
2022-11-26T09:14:25.786Z,9.57
2022-11-26T09:16:54.760Z,9.17
2022-11-26T09:19:22.008Z,10.03
2022-11-26T09:21:49.052Z,11.60
2022-11-26T09:24:17.272Z,9.87
2022-11-26T09:26:44.635Z,10.27
2022-11-26T09:29:14.448Z,11.03
2022-11-26T09:32:15.382Z,10.83
2022-11-26T09:34:33.118Z,11.03
2022-11-26T09:36:59.772Z,10.70
2022-11-26T09:39:27.356Z,10.43
2022-11-26T09:42:40.365Z,11.70
2022-11-26T09:45:22.716Z,9.33
2022-11-26T09:47:53.506Z,11.03
2022-11-26T09:50:35.389Z,10.10
2022-11-26T09:53:13.828Z,9.30
2022-11-26T09:55:44.166Z,9.63
2022-11-26T09:58:38.664Z,10.67
2022-11-26T10:01:07.270Z,8.97
2022-11-26T10:03:37.803Z,9.13
2022-11-26T10:06:10.385Z,8.70
2022-11-26T10:08:49.511Z,9.27
2022-11-26T10:11:56.496Z,7.70
2022-11-26T10:14:32.073Z,8.03
2022-11-26T10:17:28.043Z,8.37
2022-11-26T10:20:15.937Z,7.63
2022-11-26T10:23:03.418Z,7.43
2022-11-26T10:25:39.424Z,8.33
2022-11-26T10:28:52.393Z,8.37
2022-11-26T10:31:32.934Z,9.37
2022-11-26T10:34:04.854Z,9.17
2022-11-26T10:36:41.620Z,9.17
2022-11-26T10:39:15.401Z,7.63
2022-11-26T10:41:43.016Z,7.67
2022-11-26T10:44:40.276Z,7.43
2022-11-26T10:47:25.884Z,8.10
2022-11-26T10:49:56.293Z,8.27
2022-11-26T10:52:29.430Z,7.80
2022-11-26T10:55:29.117Z,9.17
2022-11-26T10:58:07.259Z,9.77
2022-11-26T11:00:43.965Z,9.97
2022-11-26T11:03:51.884Z,10.80
2022-11-26T11:06:19.202Z,9.47
2022-11-26T11:08:48.250Z,11.10
2022-11-26T11:11:28.442Z,9.83
2022-11-26T11:13:56.617Z,12.30
2022-11-26T11:16:29.412Z,10.87
2022-11-26T11:19:00.143Z,11.13
2022-11-26T11:21:34.343Z,10.67
2022-11-26T11:24:18.809Z,10.30
2022-11-26T11:26:48.867Z,10.67
2022-11-26T11:29:42.325Z,10.30
2022-11-26T11:32:36.132Z,9.80
2022-11-26T11:35:30.212Z,10.13
2022-11-26T11:37:58.445Z,8.83
2022-11-26T11:40:30.352Z,8.03
2022-11-26T11:43:07.679Z,7.27
2022-11-26T11:45:42.150Z,8.50
2022-11-26T11:48:33.248Z,8.60
2022-11-26T11:51:41.175Z,8.00
2022-11-26T11:54:56.920Z,8.03
2022-11-26T11:58:09.538Z,8.47
2022-11-26T12:01:03.672Z,8.30
2022-11-26T12:04:09.501Z,9.60
2022-11-26T12:07:04.705Z,8.73
2022-11-26T12:09:55.637Z,9.13
2022-11-26T12:12:45.071Z,9.87
2022-11-26T12:15:30.016Z,9.80
2022-11-26T12:18:21.202Z,7.93
2022-11-26T12:20:55.671Z,8.63
2022-11-26T12:23:55.125Z,9.27
2022-11-26T12:26:58.318Z,9.77
2022-11-26T12:29:38.702Z,9.67
2022-11-26T12:33:06.637Z,9.63
2022-11-26T12:35:43.647Z,9.23
2022-11-26T12:38:39.839Z,9.53
2022-11-26T12:41:20.101Z,9.20
2022-11-26T12:44:03.610Z,10.17
2022-11-26T12:47:01.264Z,9.57
2022-11-26T12:49:41.767Z,7.90
2022-11-26T12:52:38.886Z,10.43
2022-11-26T12:55:43.122Z,9.83
2022-11-26T12:58:22.473Z,8.60
2022-11-26T13:00:54.474Z,10.20
2022-11-26T13:03:29.173Z,10.67
2022-11-26T13:06:14.028Z,9.93
2022-11-26T13:09:09.932Z,11.07
2022-11-26T13:11:51.261Z,10.50
2022-11-26T13:15:07.531Z,11.87
2022-11-26T13:17:47.844Z,11.70
2022-11-26T13:20:30.477Z,11.13
2022-11-26T13:23:38.236Z,10.60
2022-11-26T13:26:43.835Z,12.00
2022-11-26T13:29:55.585Z,12.27
2022-11-26T13:32:37.671Z,10.60
2022-11-26T13:35:56.950Z,9.53
2022-11-26T13:38:59.823Z,10.80
2022-11-26T13:41:50.866Z,11.70
2022-11-26T13:44:49.370Z,9.47
2022-11-26T13:47:30.250Z,10.37
2022-11-26T13:50:01.162Z,11.53
2022-11-26T13:52:51.846Z,10.20
2022-11-26T13:55:30.474Z,11.50
2022-11-26T13:58:02.724Z,11.27
2022-11-26T14:00:35.142Z,11.33
2022-11-26T14:03:03.536Z,10.30
2022-11-26T14:06:01.357Z,9.97
2022-11-26T14:08:48.348Z,10.10
2022-11-26T14:11:46.271Z,9.63
2022-11-26T14:14:25.010Z,9.73
2022-11-26T14:17:00.913Z,7.80
2022-11-26T14:19:39.763Z,9.53
2022-11-26T14:22:21.609Z,8.27
2022-11-26T14:24:48.388Z,7.77
2022-11-26T14:27:26.036Z,7.20
2022-11-26T14:30:23.181Z,7.60
2022-11-26T14:33:17.213Z,9.03
2022-11-26T14:35:56.030Z,7.37
2022-11-26T14:38:28.721Z,7.93
2022-11-26T14:41:00.861Z,8.53
2022-11-26T14:43:29.424Z,9.20
2022-11-26T14:46:16.555Z,8.07
2022-11-26T14:48:47.288Z,7.70
2022-11-26T14:51:23.129Z,8.40
2022-11-26T14:53:50.712Z,8.93
2022-11-26T14:56:21.091Z,9.23
2022-11-26T14:58:58.057Z,8.37
2022-11-26T15:01:29.082Z,9.67
2022-11-26T15:04:02.510Z,9.43
2022-11-26T15:06:42.944Z,9.27
2022-11-26T15:09:17.061Z,9.07
2022-11-26T15:12:15.746Z,9.10
2022-11-26T15:14:56.032Z,8.60
2022-11-26T15:17:25.821Z,9.47
2022-11-26T15:19:54.398Z,9.40
2022-11-26T15:22:24.811Z,9.40
2022-11-26T15:24:52.743Z,8.48
2022-11-26T15:27:37.588Z,9.97
2022-11-26T15:30:20.087Z,9.32
2022-11-26T15:32:47.170Z,9.07
2022-11-26T15:35:16.056Z,9.37
2022-11-26T15:37:42.814Z,10.30
2022-11-26T15:40:18.849Z,9.63
2022-11-26T15:42:46.996Z,10.70
2022-11-26T15:45:16.817Z,10.93
2022-11-26T15:47:55.358Z,12.07
2022-11-26T15:50:29.984Z,13.47
2022-11-26T15:53:33.743Z,17.30
2022-11-26T15:56:02.023Z,17.17
2022-11-26T15:58:38.304Z,17.58
2022-11-26T16:01:16.381Z,15.00
2022-11-26T16:03:48.637Z,14.13
2022-11-26T16:06:33.204Z,14.32
2022-11-26T16:09:04.695Z,13.85
2022-11-26T16:11:34.331Z,11.90
2022-11-26T16:14:38.213Z,14.73
2022-11-26T16:17:14.938Z,12.60
2022-11-26T16:19:52.856Z,11.47
2022-11-26T16:22:26.946Z,10.27
2022-11-26T16:25:19.101Z,9.63
2022-11-26T16:28:21.465Z,9.70
2022-11-26T16:30:48.298Z,8.53
2022-11-26T16:33:14.976Z,9.33
2022-11-26T16:35:46.471Z,9.67
2022-11-26T16:38:22.270Z,9.37
2022-11-26T16:40:50.189Z,10.07
2022-11-26T16:43:17.397Z,9.77
2022-11-26T16:45:44.629Z,10.93
2022-11-26T16:48:31.507Z,10.33
2022-11-26T16:50:58.218Z,10.73
2022-11-26T16:53:24.880Z,11.50
2022-11-26T16:55:53.453Z,10.60
2022-11-26T16:58:28.555Z,11.10
2022-11-26T17:00:56.676Z,10.67
2022-11-26T17:03:25.157Z,11.27
2022-11-26T17:05:56.438Z,11.03
2022-11-26T17:08:23.533Z,9.80
2022-11-26T17:10:51.206Z,11.40
2022-11-26T17:13:20.452Z,11.07
2022-11-26T17:15:49.088Z,11.17
2022-11-26T17:18:25.934Z,10.80
2022-11-26T17:20:54.015Z,11.57
2022-11-26T17:23:20.949Z,9.97
2022-11-26T17:25:52.449Z,9.97
2022-11-26T17:28:21.014Z,11.37
2022-11-26T17:30:47.954Z,10.33
2022-11-26T17:33:14.844Z,10.93
2022-11-26T17:35:41.902Z,10.20
2022-11-26T17:38:21.007Z,11.10
2022-11-26T17:40:48.696Z,10.33
2022-11-26T17:43:15.438Z,10.80
2022-11-26T17:45:42.571Z,11.50
2022-11-26T17:48:14.018Z,14.37
2022-11-26T17:50:41.301Z,14.13
2022-11-26T17:53:08.047Z,15.80
2022-11-26T17:55:34.876Z,15.57
2022-11-26T17:58:01.552Z,15.10
2022-11-26T18:00:29.682Z,14.90
2022-11-26T18:02:56.972Z,13.50
2022-11-26T18:05:24.714Z,14.10
2022-11-26T18:07:51.521Z,14.87
2022-11-26T18:10:20.748Z,13.30
2022-11-26T18:12:48.227Z,13.63
2022-11-26T18:15:24.827Z,14.50
2022-11-26T18:17:54.116Z,14.40
2022-11-26T18:20:25.839Z,13.33
2022-11-26T18:22:55.160Z,11.90
2022-11-26T18:25:22.082Z,12.75
2022-11-26T18:27:48.785Z,12.60
2022-11-26T18:30:16.723Z,12.97
2022-11-26T18:32:43.494Z,12.90
2022-11-26T18:35:10.926Z,11.40
2022-11-26T18:37:39.745Z,10.20
2022-11-26T18:40:11.032Z,10.77
2022-11-26T18:42:38.572Z,9.70
2022-11-26T18:45:08.096Z,9.77
2022-11-26T18:47:34.926Z,9.57
2022-11-26T18:50:02.088Z,9.40
2022-11-26T18:52:28.993Z,9.95
2022-11-26T20:16:53.155Z,25.37
2022-11-26T20:19:21.966Z,20.30
2022-11-26T20:21:49.807Z,17.67
2022-11-26T20:24:17.895Z,16.98
2022-11-26T20:26:47.092Z,16.30
2022-11-26T20:29:16.923Z,15.70
2022-11-26T20:31:47.654Z,16.27
2022-11-26T20:34:17.134Z,16.87
2022-11-26T20:36:44.494Z,16.27
2022-11-26T20:39:15.775Z,15.77
2022-11-26T20:41:43.181Z,16.37
2022-11-26T20:44:11.642Z,14.60
2022-11-26T20:46:38.751Z,15.17
2022-11-26T20:49:06.949Z,14.87
2022-11-26T20:51:33.861Z,15.43
2022-11-26T20:54:02.756Z,15.03
2022-11-26T20:56:29.592Z,14.40
2022-11-26T20:58:56.300Z,15.10
2022-11-26T21:01:28.382Z,15.70
2022-11-26T21:03:55.925Z,15.37
2022-11-26T21:06:31.565Z,15.23
2022-11-26T21:09:04.971Z,16.87
2022-11-26T21:11:31.862Z,14.67
2022-11-26T21:13:59.975Z,15.33
2022-11-26T21:16:27.740Z,15.30
2022-11-26T21:18:55.684Z,15.10
2022-11-26T21:21:24.372Z,14.97
2022-11-26T21:23:51.290Z,15.43
2022-11-26T21:26:24.334Z,15.07
2022-11-26T21:28:58.249Z,15.57
2022-11-26T21:31:26.769Z,17.47
2022-11-26T21:33:57.055Z,15.77
2022-11-26T21:36:25.085Z,15.47
2022-11-26T21:38:51.892Z,15.33
2022-11-26T21:41:19.864Z,14.63
2022-11-26T21:43:47.660Z,15.23
2022-11-26T21:46:19.779Z,16.33
2022-11-26T21:48:46.971Z,16.37
2022-11-26T21:51:17.481Z,16.27
2022-11-26T21:53:44.956Z,16.23
2022-11-26T21:56:23.392Z,15.07
2022-11-26T21:58:50.371Z,16.43
2022-11-26T22:01:21.344Z,16.90
2022-11-26T22:03:52.251Z,22.17
2022-11-26T22:06:20.870Z,29.30
2022-11-26T22:08:47.858Z,27.73
2022-11-26T22:11:20.778Z,22.13
2022-11-26T22:13:47.649Z,17.10
2022-11-26T22:16:20.483Z,16.60
2022-11-26T22:18:48.357Z,15.90
2022-11-26T22:21:41.863Z,14.83
2022-11-26T22:24:14.757Z,13.47
2022-11-26T22:26:42.163Z,13.63
2022-11-26T22:29:12.227Z,14.00
2022-11-26T22:31:39.900Z,13.87
2022-11-26T22:34:09.931Z,12.87
2022-11-26T22:36:38.164Z,12.93
2022-11-26T22:39:10.583Z,14.67
2022-11-26T22:41:40.415Z,14.43
2022-11-26T22:44:08.398Z,14.37
2022-11-26T22:46:38.085Z,13.37
2022-11-26T22:49:06.476Z,12.43
2022-11-26T22:51:34.909Z,13.40
2022-11-26T22:54:05.553Z,12.17
2022-11-26T22:56:33.396Z,12.90
2022-11-26T22:59:01.515Z,13.53
2022-11-26T23:01:32.000Z,14.43
2022-11-26T23:04:01.091Z,13.70
2022-11-26T23:06:30.472Z,13.47
2022-11-26T23:08:59.079Z,12.87
2022-11-26T23:11:33.475Z,13.00
2022-11-26T23:14:02.019Z,12.20
2022-11-26T23:16:29.160Z,12.97
2022-11-26T23:18:57.412Z,14.23
2022-11-26T23:21:28.178Z,14.13
2022-11-26T23:23:55.824Z,13.40
2022-11-26T23:26:30.465Z,13.43
2022-11-26T23:28:59.473Z,13.20
2022-11-26T23:31:34.617Z,13.67
2022-11-26T23:34:02.026Z,13.73
2022-11-26T23:36:29.805Z,13.13
2022-11-26T23:38:59.355Z,13.53
2022-11-26T23:41:26.171Z,13.93
2022-11-26T23:43:52.950Z,12.87
2022-11-26T23:46:24.150Z,12.90
2022-11-26T23:48:51.665Z,12.63
2022-11-26T23:51:22.234Z,13.30
2022-11-26T23:53:50.725Z,12.97
2022-11-26T23:56:25.216Z,13.17
2022-11-26T23:58:55.125Z,12.83
